sensor_id;sensor_type;location;lat;lon;timestamp;P1;durP1;ratioP1;P2;durP2;ratioP2
59366;SDS011;45163;47.690;11.770;2023-02-22T00:01:10;1.37;;;1.03;;
59366;SDS011;45163;47.690;11.770;2023-02-22T00:03:49;1.43;;;1.20;;
59366;SDS011;45163;47.690;11.770;2023-02-22T00:06:17;2.30;;;1.17;;
59366;SDS011;45163;47.690;11.770;2023-02-22T00:08:46;1.97;;;1.13;;
59366;SDS011;45163;47.690;11.770;2023-02-22T00:11:14;1.73;;;1.10;;
59366;SDS011;45163;47.690;11.770;2023-02-22T00:13:40;3.90;;;1.50;;
59366;SDS011;45163;47.690;11.770;2023-02-22T00:16:18;3.40;;;1.90;;
59366;SDS011;45163;47.690;11.770;2023-02-22T00:18:46;2.63;;;1.33;;
59366;SDS011;45163;47.690;11.770;2023-02-22T00:21:13;1.87;;;1.47;;
59366;SDS011;45163;47.690;11.770;2023-02-22T00:23:41;2.10;;;1.40;;
59366;SDS011;45163;47.690;11.770;2023-02-22T00:26:13;1.20;;;1.10;;
59366;SDS011;45163;47.690;11.770;2023-02-22T00:28:43;1.30;;;1.20;;
59366;SDS011;45163;47.690;11.770;2023-02-22T00:31:11;2.90;;;1.50;;
59366;SDS011;45163;47.690;11.770;2023-02-22T00:33:37;1.87;;;1.60;;
59366;SDS011;45163;47.690;11.770;2023-02-22T00:36:04;5.70;;;1.57;;
59366;SDS011;45163;47.690;11.770;2023-02-22T00:38:30;1.90;;;1.40;;
59366;SDS011;45163;47.690;11.770;2023-02-22T00:40:56;2.17;;;1.30;;
59366;SDS011;45163;47.690;11.770;2023-02-22T00:43:22;2.37;;;1.73;;
59366;SDS011;45163;47.690;11.770;2023-02-22T00:45:49;1.80;;;1.50;;
59366;SDS011;45163;47.690;11.770;2023-02-22T00:48:15;1.70;;;1.57;;
59366;SDS011;45163;47.690;11.770;2023-02-22T00:50:41;5.10;;;1.77;;
59366;SDS011;45163;47.690;11.770;2023-02-22T00:53:07;1.80;;;1.40;;
59366;SDS011;45163;47.690;11.770;2023-02-22T00:55:35;2.90;;;1.57;;
59366;SDS011;45163;47.690;11.770;2023-02-22T00:58:02;2.73;;;1.30;;
59366;SDS011;45163;47.690;11.770;2023-02-22T01:00:31;1.93;;;1.20;;
59366;SDS011;45163;47.690;11.770;2023-02-22T01:02:59;1.47;;;1.10;;
59366;SDS011;45163;47.690;11.770;2023-02-22T01:05:26;1.50;;;1.40;;
59366;SDS011;45163;47.690;11.770;2023-02-22T01:07:54;1.53;;;1.30;;
59366;SDS011;45163;47.690;11.770;2023-02-22T01:10:26;3.30;;;1.27;;
59366;SDS011;45163;47.690;11.770;2023-02-22T01:12:54;1.10;;;1.00;;
59366;SDS011;45163;47.690;11.770;2023-02-22T01:15:22;3.27;;;1.43;;
59366;SDS011;45163;47.690;11.770;2023-02-22T01:17:50;2.73;;;1.50;;
59366;SDS011;45163;47.690;11.770;2023-02-22T01:20:18;2.37;;;1.20;;
59366;SDS011;45163;47.690;11.770;2023-02-22T01:22:47;1.50;;;1.37;;
59366;SDS011;45163;47.690;11.770;2023-02-22T01:25:17;4.37;;;1.50;;
59366;SDS011;45163;47.690;11.770;2023-02-22T01:27:44;1.60;;;1.50;;
59366;SDS011;45163;47.690;11.770;2023-02-22T01:30:11;3.00;;;1.40;;
59366;SDS011;45163;47.690;11.770;2023-02-22T01:32:39;3.47;;;1.50;;
59366;SDS011;45163;47.690;11.770;2023-02-22T01:35:11;1.43;;;1.30;;
59366;SDS011;45163;47.690;11.770;2023-02-22T01:37:39;1.73;;;1.10;;
59366;SDS011;45163;47.690;11.770;2023-02-22T01:40:07;2.30;;;1.30;;
59366;SDS011;45163;47.690;11.770;2023-02-22T01:42:35;4.43;;;1.40;;
59366;SDS011;45163;47.690;11.770;2023-02-22T01:50:26;1.77;;;1.37;;
59366;SDS011;45163;47.690;11.770;2023-02-22T01:52:53;2.80;;;1.40;;
59366;SDS011;45163;47.690;11.770;2023-02-22T01:55:20;1.23;;;1.10;;
59366;SDS011;45163;47.690;11.770;2023-02-22T01:57:46;3.20;;;1.50;;
59366;SDS011;45163;47.690;11.770;2023-02-22T02:00:14;3.23;;;1.10;;
59366;SDS011;45163;47.690;11.770;2023-02-22T02:02:46;1.83;;;1.40;;
59366;SDS011;45163;47.690;11.770;2023-02-22T02:05:16;5.10;;;1.40;;
59366;SDS011;45163;47.690;11.770;2023-02-22T02:07:42;5.17;;;1.33;;
59366;SDS011;45163;47.690;11.770;2023-02-22T02:10:12;1.70;;;1.50;;
59366;SDS011;45163;47.690;11.770;2023-02-22T02:12:43;1.60;;;1.37;;
59366;SDS011;45163;47.690;11.770;2023-02-22T02:15:24;1.17;;;1.10;;
59366;SDS011;45163;47.690;11.770;2023-02-22T02:18:02;3.00;;;1.43;;
59366;SDS011;45163;47.690;11.770;2023-02-22T02:39:52;2.63;;;1.40;;
59366;SDS011;45163;47.690;11.770;2023-02-22T02:42:27;1.20;;;1.10;;
59366;SDS011;45163;47.690;11.770;2023-02-22T02:47:59;1.47;;;1.30;;
59366;SDS011;45163;47.690;11.770;2023-02-22T02:50:31;2.67;;;1.43;;
59366;SDS011;45163;47.690;11.770;2023-02-22T02:53:01;1.73;;;1.50;;
59366;SDS011;45163;47.690;11.770;2023-02-22T02:55:30;3.97;;;1.20;;
59366;SDS011;45163;47.690;11.770;2023-02-22T02:58:01;2.37;;;1.40;;
59366;SDS011;45163;47.690;11.770;2023-02-22T03:00:31;2.30;;;1.37;;
59366;SDS011;45163;47.690;11.770;2023-02-22T03:08:42;1.77;;;1.37;;
59366;SDS011;45163;47.690;11.770;2023-02-22T03:11:17;1.40;;;1.30;;
59366;SDS011;45163;47.690;11.770;2023-02-22T03:17:03;2.37;;;1.10;;
59366;SDS011;45163;47.690;11.770;2023-02-22T03:22:50;1.30;;;1.20;;
59366;SDS011;45163;47.690;11.770;2023-02-22T03:25:32;1.77;;;1.40;;
59366;SDS011;45163;47.690;11.770;2023-02-22T03:28:04;2.80;;;1.40;;
59366;SDS011;45163;47.690;11.770;2023-02-22T03:31:11;2.20;;;1.40;;
59366;SDS011;45163;47.690;11.770;2023-02-22T03:36:14;3.13;;;1.27;;
59366;SDS011;45163;47.690;11.770;2023-02-22T03:38:46;2.37;;;1.30;;
59366;SDS011;45163;47.690;11.770;2023-02-22T03:41:15;1.40;;;1.30;;
59366;SDS011;45163;47.690;11.770;2023-02-22T03:43:45;2.70;;;1.40;;
59366;SDS011;45163;47.690;11.770;2023-02-22T03:46:15;1.43;;;1.33;;
59366;SDS011;45163;47.690;11.770;2023-02-22T03:48:54;2.83;;;1.47;;
59366;SDS011;45163;47.690;11.770;2023-02-22T03:51:31;3.57;;;1.30;;
59366;SDS011;45163;47.690;11.770;2023-02-22T03:53:57;1.73;;;1.40;;
59366;SDS011;45163;47.690;11.770;2023-02-22T03:56:29;2.60;;;1.67;;
59366;SDS011;45163;47.690;11.770;2023-02-22T03:59:03;2.13;;;1.30;;
59366;SDS011;45163;47.690;11.770;2023-02-22T04:01:32;2.33;;;1.50;;
59366;SDS011;45163;47.690;11.770;2023-02-22T04:03:59;6.53;;;1.57;;
59366;SDS011;45163;47.690;11.770;2023-02-22T04:06:26;2.07;;;1.37;;
59366;SDS011;45163;47.690;11.770;2023-02-22T04:08:53;1.80;;;1.50;;
59366;SDS011;45163;47.690;11.770;2023-02-22T04:11:19;3.33;;;1.47;;
59366;SDS011;45163;47.690;11.770;2023-02-22T04:13:45;5.27;;;1.40;;
59366;SDS011;45163;47.690;11.770;2023-02-22T04:16:11;1.83;;;1.40;;
59366;SDS011;45163;47.690;11.770;2023-02-22T04:18:37;1.20;;;1.10;;
59366;SDS011;45163;47.690;11.770;2023-02-22T04:21:03;2.07;;;1.30;;
59366;SDS011;45163;47.690;11.770;2023-02-22T04:23:29;2.77;;;1.40;;
59366;SDS011;45163;47.690;11.770;2023-02-22T04:25:55;1.20;;;1.10;;
59366;SDS011;45163;47.690;11.770;2023-02-22T04:28:21;1.97;;;1.33;;
59366;SDS011;45163;47.690;11.770;2023-02-22T04:30:47;5.20;;;1.70;;
59366;SDS011;45163;47.690;11.770;2023-02-22T04:33:13;2.80;;;1.50;;
59366;SDS011;45163;47.690;11.770;2023-02-22T04:35:40;4.00;;;1.30;;
59366;SDS011;45163;47.690;11.770;2023-02-22T04:38:06;4.03;;;1.50;;
59366;SDS011;45163;47.690;11.770;2023-02-22T04:40:34;1.37;;;1.27;;
59366;SDS011;45163;47.690;11.770;2023-02-22T04:43:00;1.33;;;1.23;;
59366;SDS011;45163;47.690;11.770;2023-02-22T04:45:26;1.37;;;1.20;;
59366;SDS011;45163;47.690;11.770;2023-02-22T04:47:52;2.13;;;1.20;;
59366;SDS011;45163;47.690;11.770;2023-02-22T04:50:18;2.10;;;1.40;;
59366;SDS011;45163;47.690;11.770;2023-02-22T04:52:44;2.00;;;1.30;;
59366;SDS011;45163;47.690;11.770;2023-02-22T04:55:11;4.67;;;1.47;;
59366;SDS011;45163;47.690;11.770;2023-02-22T04:57:37;3.23;;;1.50;;
59366;SDS011;45163;47.690;11.770;2023-02-22T05:00:04;3.00;;;1.40;;
59366;SDS011;45163;47.690;11.770;2023-02-22T05:02:31;1.43;;;1.30;;
59366;SDS011;45163;47.690;11.770;2023-02-22T05:04:57;3.60;;;1.40;;
59366;SDS011;45163;47.690;11.770;2023-02-22T05:07:23;1.97;;;1.50;;
59366;SDS011;45163;47.690;11.770;2023-02-22T05:09:49;2.10;;;1.60;;
59366;SDS011;45163;47.690;11.770;2023-02-22T05:12:15;1.57;;;1.47;;
59366;SDS011;45163;47.690;11.770;2023-02-22T05:14:41;3.63;;;1.70;;
59366;SDS011;45163;47.690;11.770;2023-02-22T05:17:08;2.93;;;1.50;;
59366;SDS011;45163;47.690;11.770;2023-02-22T05:19:34;2.87;;;1.70;;
59366;SDS011;45163;47.690;11.770;2023-02-22T05:22:01;3.20;;;1.20;;
59366;SDS011;45163;47.690;11.770;2023-02-22T05:24:28;3.23;;;1.30;;
59366;SDS011;45163;47.690;11.770;2023-02-22T05:26:54;2.60;;;1.30;;
59366;SDS011;45163;47.690;11.770;2023-02-22T05:29:20;8.03;;;1.40;;
59366;SDS011;45163;47.690;11.770;2023-02-22T05:31:46;4.63;;;1.30;;
59366;SDS011;45163;47.690;11.770;2023-02-22T05:34:12;9.10;;;1.67;;
59366;SDS011;45163;47.690;11.770;2023-02-22T05:36:38;1.93;;;1.20;;
59366;SDS011;45163;47.690;11.770;2023-02-22T05:39:04;1.63;;;1.27;;
59366;SDS011;45163;47.690;11.770;2023-02-22T05:41:30;4.07;;;1.43;;
59366;SDS011;45163;47.690;11.770;2023-02-22T05:43:56;3.00;;;1.60;;
59366;SDS011;45163;47.690;11.770;2023-02-22T05:46:22;3.27;;;1.60;;
59366;SDS011;45163;47.690;11.770;2023-02-22T05:48:48;4.57;;;2.00;;
59366;SDS011;45163;47.690;11.770;2023-02-22T05:51:14;2.40;;;1.60;;
59366;SDS011;45163;47.690;11.770;2023-02-22T05:53:40;3.20;;;1.60;;
59366;SDS011;45163;47.690;11.770;2023-02-22T05:56:07;2.17;;;1.47;;
59366;SDS011;45163;47.690;11.770;2023-02-22T05:58:33;2.57;;;1.70;;
59366;SDS011;45163;47.690;11.770;2023-02-22T06:00:59;3.03;;;1.63;;
59366;SDS011;45163;47.690;11.770;2023-02-22T06:03:25;6.83;;;2.00;;
59366;SDS011;45163;47.690;11.770;2023-02-22T06:05:51;5.63;;;1.90;;
59366;SDS011;45163;47.690;11.770;2023-02-22T06:08:17;7.37;;;1.70;;
59366;SDS011;45163;47.690;11.770;2023-02-22T06:10:43;5.87;;;1.73;;
59366;SDS011;45163;47.690;11.770;2023-02-22T06:13:09;2.27;;;1.30;;
59366;SDS011;45163;47.690;11.770;2023-02-22T06:15:35;4.20;;;1.53;;
59366;SDS011;45163;47.690;11.770;2023-02-22T06:18:01;3.40;;;1.57;;
59366;SDS011;45163;47.690;11.770;2023-02-22T06:20:28;3.73;;;1.60;;
59366;SDS011;45163;47.690;11.770;2023-02-22T06:22:55;5.30;;;2.13;;
59366;SDS011;45163;47.690;11.770;2023-02-22T06:25:24;3.70;;;1.67;;
59366;SDS011;45163;47.690;11.770;2023-02-22T06:27:53;5.00;;;2.13;;
59366;SDS011;45163;47.690;11.770;2023-02-22T06:30:20;8.00;;;1.83;;
59366;SDS011;45163;47.690;11.770;2023-02-22T06:32:47;4.87;;;1.63;;
59366;SDS011;45163;47.690;11.770;2023-02-22T06:35:14;6.47;;;1.97;;
59366;SDS011;45163;47.690;11.770;2023-02-22T06:37:40;1.70;;;1.60;;
59366;SDS011;45163;47.690;11.770;2023-02-22T06:40:07;6.30;;;1.60;;
59366;SDS011;45163;47.690;11.770;2023-02-22T06:42:33;5.23;;;1.73;;
59366;SDS011;45163;47.690;11.770;2023-02-22T06:44:59;7.13;;;1.83;;
59366;SDS011;45163;47.690;11.770;2023-02-22T06:47:25;3.63;;;2.00;;
59366;SDS011;45163;47.690;11.770;2023-02-22T06:49:52;10.60;;;1.70;;
59366;SDS011;45163;47.690;11.770;2023-02-22T06:52:19;3.63;;;1.43;;
59366;SDS011;45163;47.690;11.770;2023-02-22T06:54:45;3.80;;;1.70;;
59366;SDS011;45163;47.690;11.770;2023-02-22T06:57:11;5.30;;;1.67;;
59366;SDS011;45163;47.690;11.770;2023-02-22T06:59:37;3.33;;;1.57;;
59366;SDS011;45163;47.690;11.770;2023-02-22T07:02:02;3.60;;;1.67;;
59366;SDS011;45163;47.690;11.770;2023-02-22T07:04:29;4.23;;;1.80;;
59366;SDS011;45163;47.690;11.770;2023-02-22T07:06:55;8.27;;;2.90;;
59366;SDS011;45163;47.690;11.770;2023-02-22T07:09:21;7.73;;;2.80;;
59366;SDS011;45163;47.690;11.770;2023-02-22T07:11:47;5.80;;;2.13;;
59366;SDS011;45163;47.690;11.770;2023-02-22T07:14:15;6.20;;;2.40;;
59366;SDS011;45163;47.690;11.770;2023-02-22T07:16:41;2.90;;;1.80;;
59366;SDS011;45163;47.690;11.770;2023-02-22T07:19:07;9.60;;;2.37;;
59366;SDS011;45163;47.690;11.770;2023-02-22T07:21:33;6.50;;;2.17;;
59366;SDS011;45163;47.690;11.770;2023-02-22T07:23:59;3.00;;;1.50;;
59366;SDS011;45163;47.690;11.770;2023-02-22T07:26:25;5.90;;;1.83;;
59366;SDS011;45163;47.690;11.770;2023-02-22T07:28:52;3.20;;;1.70;;
59366;SDS011;45163;47.690;11.770;2023-02-22T07:31:18;2.47;;;1.67;;
59366;SDS011;45163;47.690;11.770;2023-02-22T07:33:45;3.47;;;1.80;;
59366;SDS011;45163;47.690;11.770;2023-02-22T07:36:11;2.97;;;1.70;;
59366;SDS011;45163;47.690;11.770;2023-02-22T07:38:39;4.63;;;1.57;;
59366;SDS011;45163;47.690;11.770;2023-02-22T07:41:05;2.67;;;1.50;;
59366;SDS011;45163;47.690;11.770;2023-02-22T07:43:31;2.43;;;1.50;;
59366;SDS011;45163;47.690;11.770;2023-02-22T07:45:58;3.30;;;1.50;;
59366;SDS011;45163;47.690;11.770;2023-02-22T07:48:27;5.17;;;1.50;;
59366;SDS011;45163;47.690;11.770;2023-02-22T07:50:55;5.27;;;1.60;;
59366;SDS011;45163;47.690;11.770;2023-02-22T07:53:26;1.67;;;1.13;;
59366;SDS011;45163;47.690;11.770;2023-02-22T07:55:56;3.60;;;1.40;;
59366;SDS011;45163;47.690;11.770;2023-02-22T07:58:24;2.80;;;1.30;;
59366;SDS011;45163;47.690;11.770;2023-02-22T08:00:51;4.00;;;1.30;;
59366;SDS011;45163;47.690;11.770;2023-02-22T08:03:18;2.67;;;1.63;;
59366;SDS011;45163;47.690;11.770;2023-02-22T08:05:47;3.60;;;1.60;;
59366;SDS011;45163;47.690;11.770;2023-02-22T08:08:15;3.83;;;1.60;;
59366;SDS011;45163;47.690;11.770;2023-02-22T08:10:42;3.27;;;1.90;;
59366;SDS011;45163;47.690;11.770;2023-02-22T08:13:08;4.50;;;1.90;;
59366;SDS011;45163;47.690;11.770;2023-02-22T08:15:36;4.63;;;2.00;;
59366;SDS011;45163;47.690;11.770;2023-02-22T08:18:07;7.13;;;2.37;;
59366;SDS011;45163;47.690;11.770;2023-02-22T08:20:36;6.67;;;2.80;;
59366;SDS011;45163;47.690;11.770;2023-02-22T08:23:04;5.17;;;2.57;;
59366;SDS011;45163;47.690;11.770;2023-02-22T08:25:31;3.03;;;2.27;;
59366;SDS011;45163;47.690;11.770;2023-02-22T08:28:01;8.07;;;3.90;;
59366;SDS011;45163;47.690;11.770;2023-02-22T08:30:29;11.87;;;3.23;;
59366;SDS011;45163;47.690;11.770;2023-02-22T08:32:56;7.93;;;3.40;;
59366;SDS011;45163;47.690;11.770;2023-02-22T08:35:23;12.50;;;6.63;;
59366;SDS011;45163;47.690;11.770;2023-02-22T08:37:52;6.70;;;3.90;;
59366;SDS011;45163;47.690;11.770;2023-02-22T08:40:24;11.17;;;4.10;;
59366;SDS011;45163;47.690;11.770;2023-02-22T08:42:52;13.87;;;6.17;;
59366;SDS011;45163;47.690;11.770;2023-02-22T08:45:18;3.53;;;2.30;;
59366;SDS011;45163;47.690;11.770;2023-02-22T08:47:45;9.70;;;2.80;;
59366;SDS011;45163;47.690;11.770;2023-02-22T08:50:22;4.10;;;2.00;;
59366;SDS011;45163;47.690;11.770;2023-02-22T08:52:51;2.47;;;1.73;;
59366;SDS011;45163;47.690;11.770;2023-02-22T08:55:19;2.60;;;1.40;;
59366;SDS011;45163;47.690;11.770;2023-02-22T08:57:49;2.30;;;1.50;;
59366;SDS011;45163;47.690;11.770;2023-02-22T09:00:15;2.50;;;1.70;;
59366;SDS011;45163;47.690;11.770;2023-02-22T09:02:43;3.93;;;2.07;;
59366;SDS011;45163;47.690;11.770;2023-02-22T09:05:09;3.40;;;1.67;;
59366;SDS011;45163;47.690;11.770;2023-02-22T09:07:35;2.77;;;1.50;;
59366;SDS011;45163;47.690;11.770;2023-02-22T09:10:01;5.20;;;1.70;;
59366;SDS011;45163;47.690;11.770;2023-02-22T09:12:27;2.47;;;1.30;;
59366;SDS011;45163;47.690;11.770;2023-02-22T09:14:53;3.73;;;1.50;;
59366;SDS011;45163;47.690;11.770;2023-02-22T09:17:19;4.13;;;1.47;;
59366;SDS011;45163;47.690;11.770;2023-02-22T09:19:45;1.80;;;1.40;;
59366;SDS011;45163;47.690;11.770;2023-02-22T09:22:11;5.17;;;1.87;;
59366;SDS011;45163;47.690;11.770;2023-02-22T09:24:37;3.97;;;1.87;;
59366;SDS011;45163;47.690;11.770;2023-02-22T09:27:03;5.43;;;2.30;;
59366;SDS011;45163;47.690;11.770;2023-02-22T09:29:29;6.13;;;1.97;;
59366;SDS011;45163;47.690;11.770;2023-02-22T09:31:55;3.90;;;3.00;;
59366;SDS011;45163;47.690;11.770;2023-02-22T09:34:22;6.13;;;1.93;;
59366;SDS011;45163;47.690;11.770;2023-02-22T09:36:54;3.20;;;1.30;;
59366;SDS011;45163;47.690;11.770;2023-02-22T09:39:22;7.05;;;1.50;;
59366;SDS011;45163;47.690;11.770;2023-02-22T09:44:36;4.28;;;1.63;;
59366;SDS011;45163;47.690;11.770;2023-02-22T09:47:15;2.35;;;1.40;;
59366;SDS011;45163;47.690;11.770;2023-02-22T09:49:57;3.70;;;1.42;;
59366;SDS011;45163;47.690;11.770;2023-02-22T09:52:27;4.57;;;1.65;;
59366;SDS011;45163;47.690;11.770;2023-02-22T09:55:07;12.85;;;2.28;;
59366;SDS011;45163;47.690;11.770;2023-02-22T09:57:36;2.90;;;1.65;;
59366;SDS011;45163;47.690;11.770;2023-02-22T10:00:23;4.20;;;1.80;;
59366;SDS011;45163;47.690;11.770;2023-02-22T10:05:47;3.10;;;1.60;;
59366;SDS011;45163;47.690;11.770;2023-02-22T10:08:39;2.85;;;1.60;;
59366;SDS011;45163;47.690;11.770;2023-02-22T10:27:20;4.10;;;1.90;;
59366;SDS011;45163;47.690;11.770;2023-02-22T10:30:04;4.13;;;2.05;;
59366;SDS011;45163;47.690;11.770;2023-02-22T10:32:35;11.18;;;2.10;;
59366;SDS011;45163;47.690;11.770;2023-02-22T10:35:20;3.80;;;1.63;;
59366;SDS011;45163;47.690;11.770;2023-02-22T10:37:55;1.65;;;1.40;;
59366;SDS011;45163;47.690;11.770;2023-02-22T10:40:24;2.92;;;1.70;;
59366;SDS011;45163;47.690;11.770;2023-02-22T10:43:01;2.58;;;1.50;;
59366;SDS011;45163;47.690;11.770;2023-02-22T10:45:29;2.38;;;1.30;;
59366;SDS011;45163;47.690;11.770;2023-02-22T10:47:58;2.03;;;1.65;;
59366;SDS011;45163;47.690;11.770;2023-02-22T10:50:27;3.22;;;1.50;;
59366;SDS011;45163;47.690;11.770;2023-02-22T10:52:54;7.45;;;1.98;;
59366;SDS011;45163;47.690;11.770;2023-02-22T10:55:20;3.20;;;1.50;;
59366;SDS011;45163;47.690;11.770;2023-02-22T10:57:48;4.88;;;1.67;;
59366;SDS011;45163;47.690;11.770;2023-02-22T11:00:28;4.00;;;1.52;;
59366;SDS011;45163;47.690;11.770;2023-02-22T11:02:56;4.13;;;1.63;;
59366;SDS011;45163;47.690;11.770;2023-02-22T11:05:25;3.03;;;1.90;;
59366;SDS011;45163;47.690;11.770;2023-02-22T11:08:12;2.90;;;1.70;;
59366;SDS011;45163;47.690;11.770;2023-02-22T11:10:39;2.30;;;2.00;;
59366;SDS011;45163;47.690;11.770;2023-02-22T11:16:18;4.97;;;2.90;;
59366;SDS011;45163;47.690;11.770;2023-02-22T11:18:46;4.18;;;2.67;;
59366;SDS011;45163;47.690;11.770;2023-02-22T11:21:12;4.70;;;3.33;;
59366;SDS011;45163;47.690;11.770;2023-02-22T11:23:47;4.18;;;2.72;;
59366;SDS011;45163;47.690;11.770;2023-02-22T11:26:18;6.50;;;2.85;;
59366;SDS011;45163;47.690;11.770;2023-02-22T11:28:46;4.32;;;2.70;;
59366;SDS011;45163;47.690;11.770;2023-02-22T11:31:21;7.45;;;2.70;;
59366;SDS011;45163;47.690;11.770;2023-02-22T11:36:30;4.28;;;2.20;;
59366;SDS011;45163;47.690;11.770;2023-02-22T11:38:56;4.30;;;2.15;;
59366;SDS011;45163;47.690;11.770;2023-02-22T11:41:29;7.80;;;2.42;;
59366;SDS011;45163;47.690;11.770;2023-02-22T11:44:21;2.38;;;1.83;;
59366;SDS011;45163;47.690;11.770;2023-02-22T11:46:50;2.05;;;1.77;;
59366;SDS011;45163;47.690;11.770;2023-02-22T11:49:20;5.13;;;1.50;;
59366;SDS011;45163;47.690;11.770;2023-02-22T11:54:54;1.80;;;1.42;;
59366;SDS011;45163;47.690;11.770;2023-02-22T12:11:05;3.13;;;1.45;;
59366;SDS011;45163;47.690;11.770;2023-02-22T12:13:41;3.92;;;1.38;;
59366;SDS011;45163;47.690;11.770;2023-02-22T12:16:20;2.25;;;1.35;;
59366;SDS011;45163;47.690;11.770;2023-02-22T12:21:19;1.70;;;1.38;;
59366;SDS011;45163;47.690;11.770;2023-02-22T12:23:49;3.10;;;1.60;;
59366;SDS011;45163;47.690;11.770;2023-02-22T12:26:30;3.05;;;1.50;;
59366;SDS011;45163;47.690;11.770;2023-02-22T12:31:45;1.95;;;1.45;;
59366;SDS011;45163;47.690;11.770;2023-02-22T12:42:21;1.48;;;1.38;;
59366;SDS011;45163;47.690;11.770;2023-02-22T12:45:07;1.85;;;1.45;;
59366;SDS011;45163;47.690;11.770;2023-02-22T12:47:56;2.03;;;1.50;;
59366;SDS011;45163;47.690;11.770;2023-02-22T12:50:45;1.58;;;1.30;;
59366;SDS011;45163;47.690;11.770;2023-02-22T12:53:20;2.15;;;1.40;;
59366;SDS011;45163;47.690;11.770;2023-02-22T12:55:58;3.05;;;1.70;;
59366;SDS011;45163;47.690;11.770;2023-02-22T12:58:35;1.45;;;1.30;;
59366;SDS011;45163;47.690;11.770;2023-02-22T13:01:26;2.90;;;1.63;;
59366;SDS011;45163;47.690;11.770;2023-02-22T13:03:59;2.00;;;1.40;;
59366;SDS011;45163;47.690;11.770;2023-02-22T13:06:27;2.80;;;1.30;;
59366;SDS011;45163;47.690;11.770;2023-02-22T13:25:15;3.72;;;1.30;;
59366;SDS011;45163;47.690;11.770;2023-02-22T13:28:15;1.25;;;1.13;;
59366;SDS011;45163;47.690;11.770;2023-02-22T13:42:23;3.38;;;1.48;;
59366;SDS011;45163;47.690;11.770;2023-02-22T13:50:42;2.83;;;1.40;;
59366;SDS011;45163;47.690;11.770;2023-02-22T13:53:26;4.55;;;1.50;;
59366;SDS011;45163;47.690;11.770;2023-02-22T13:55:57;4.68;;;1.70;;
59366;SDS011;45163;47.690;11.770;2023-02-22T13:58:25;5.38;;;1.63;;
59366;SDS011;45163;47.690;11.770;2023-02-22T14:06:06;2.50;;;1.50;;
59366;SDS011;45163;47.690;11.770;2023-02-22T14:10:59;4.00;;;1.60;;
59366;SDS011;45163;47.690;11.770;2023-02-22T14:13:27;2.67;;;1.30;;
59366;SDS011;45163;47.690;11.770;2023-02-22T14:16:18;3.70;;;1.63;;
59366;SDS011;45163;47.690;11.770;2023-02-22T14:18:47;4.10;;;1.57;;
59366;SDS011;45163;47.690;11.770;2023-02-22T14:21:16;3.57;;;1.47;;
59366;SDS011;45163;47.690;11.770;2023-02-22T14:23:47;2.47;;;1.53;;
59366;SDS011;45163;47.690;11.770;2023-02-22T14:41:49;5.53;;;1.40;;
59366;SDS011;45163;47.690;11.770;2023-02-22T14:44:20;2.77;;;1.47;;
59366;SDS011;45163;47.690;11.770;2023-02-22T14:46:53;3.43;;;1.57;;
59366;SDS011;45163;47.690;11.770;2023-02-22T14:49:26;3.43;;;1.50;;
59366;SDS011;45163;47.690;11.770;2023-02-22T14:51:57;2.50;;;1.53;;
59366;SDS011;45163;47.690;11.770;2023-02-22T14:54:30;3.03;;;1.43;;
59366;SDS011;45163;47.690;11.770;2023-02-22T14:57:17;1.40;;;1.30;;
59366;SDS011;45163;47.690;11.770;2023-02-22T15:00:00;4.13;;;1.47;;
59366;SDS011;45163;47.690;11.770;2023-02-22T15:02:37;2.27;;;1.70;;
59366;SDS011;45163;47.690;11.770;2023-02-22T15:05:06;5.60;;;2.00;;
59366;SDS011;45163;47.690;11.770;2023-02-22T15:07:32;8.90;;;1.70;;
59366;SDS011;45163;47.690;11.770;2023-02-22T15:10:13;5.63;;;2.07;;
59366;SDS011;45163;47.690;11.770;2023-02-22T15:12:53;9.47;;;1.83;;
59366;SDS011;45163;47.690;11.770;2023-02-22T15:15:34;4.53;;;2.00;;
59366;SDS011;45163;47.690;11.770;2023-02-22T15:18:16;4.47;;;1.70;;
59366;SDS011;45163;47.690;11.770;2023-02-22T15:21:01;4.17;;;1.57;;
59366;SDS011;45163;47.690;11.770;2023-02-22T15:23:40;3.27;;;1.40;;
59366;SDS011;45163;47.690;11.770;2023-02-22T15:26:14;4.13;;;1.67;;
59366;SDS011;45163;47.690;11.770;2023-02-22T15:28:42;2.63;;;1.60;;
59366;SDS011;45163;47.690;11.770;2023-02-22T15:36:35;2.80;;;1.60;;
59366;SDS011;45163;47.690;11.770;2023-02-22T15:39:01;6.43;;;1.40;;
59366;SDS011;45163;47.690;11.770;2023-02-22T15:41:33;2.07;;;1.50;;
59366;SDS011;45163;47.690;11.770;2023-02-22T15:44:01;5.90;;;1.70;;
59366;SDS011;45163;47.690;11.770;2023-02-22T15:46:30;5.50;;;1.50;;
59366;SDS011;45163;47.690;11.770;2023-02-22T15:51:35;5.53;;;1.70;;
59366;SDS011;45163;47.690;11.770;2023-02-22T15:54:04;4.37;;;1.40;;
59366;SDS011;45163;47.690;11.770;2023-02-22T15:56:34;2.67;;;1.70;;
59366;SDS011;45163;47.690;11.770;2023-02-22T15:59:06;6.87;;;1.53;;
59366;SDS011;45163;47.690;11.770;2023-02-22T16:01:39;2.60;;;1.50;;
59366;SDS011;45163;47.690;11.770;2023-02-22T16:04:14;4.13;;;2.00;;
59366;SDS011;45163;47.690;11.770;2023-02-22T16:06:46;4.77;;;1.63;;
59366;SDS011;45163;47.690;11.770;2023-02-22T16:09:16;2.57;;;1.70;;
59366;SDS011;45163;47.690;11.770;2023-02-22T16:11:47;1.90;;;1.60;;
59366;SDS011;45163;47.690;11.770;2023-02-22T16:19:40;3.77;;;2.10;;
59366;SDS011;45163;47.690;11.770;2023-02-22T16:22:22;9.23;;;3.17;;
59366;SDS011;45163;47.690;11.770;2023-02-22T16:28:03;7.27;;;3.40;;
59366;SDS011;45163;47.690;11.770;2023-02-22T16:30:55;6.87;;;3.90;;
59366;SDS011;45163;47.690;11.770;2023-02-22T16:33:22;5.30;;;2.70;;
59366;SDS011;45163;47.690;11.770;2023-02-22T16:35:48;10.50;;;2.90;;
59366;SDS011;45163;47.690;11.770;2023-02-22T16:38:17;6.13;;;2.40;;
59366;SDS011;45163;47.690;11.770;2023-02-22T16:43:19;8.40;;;2.90;;
59366;SDS011;45163;47.690;11.770;2023-02-22T16:45:47;4.50;;;2.50;;
59366;SDS011;45163;47.690;11.770;2023-02-22T16:48:23;9.70;;;2.50;;
59366;SDS011;45163;47.690;11.770;2023-02-22T16:50:51;5.17;;;2.47;;
59366;SDS011;45163;47.690;11.770;2023-02-22T16:53:19;9.17;;;3.00;;
59366;SDS011;45163;47.690;11.770;2023-02-22T16:55:49;23.67;;;11.60;;
59366;SDS011;45163;47.690;11.770;2023-02-22T16:58:22;21.90;;;10.00;;
59366;SDS011;45163;47.690;11.770;2023-02-22T17:00:54;11.63;;;5.30;;
59366;SDS011;45163;47.690;11.770;2023-02-22T17:03:21;8.53;;;4.03;;
59366;SDS011;45163;47.690;11.770;2023-02-22T17:05:48;6.70;;;3.00;;
59366;SDS011;45163;47.690;11.770;2023-02-22T17:08:15;8.27;;;3.20;;
59366;SDS011;45163;47.690;11.770;2023-02-22T17:10:41;9.67;;;3.40;;
59366;SDS011;45163;47.690;11.770;2023-02-22T17:13:07;16.87;;;3.50;;
59366;SDS011;45163;47.690;11.770;2023-02-22T17:15:34;8.93;;;3.70;;
59366;SDS011;45163;47.690;11.770;2023-02-22T17:18:02;8.73;;;3.07;;
59366;SDS011;45163;47.690;11.770;2023-02-22T17:20:35;8.20;;;3.17;;
59366;SDS011;45163;47.690;11.770;2023-02-22T17:23:03;3.33;;;2.30;;
59366;SDS011;45163;47.690;11.770;2023-02-22T17:28:01;4.60;;;2.80;;
59366;SDS011;45163;47.690;11.770;2023-02-22T17:30:27;5.80;;;3.00;;
59366;SDS011;45163;47.690;11.770;2023-02-22T17:32:55;7.83;;;3.07;;
59366;SDS011;45163;47.690;11.770;2023-02-22T17:35:31;15.37;;;4.50;;
59366;SDS011;45163;47.690;11.770;2023-02-22T17:37:59;9.17;;;3.97;;
59366;SDS011;45163;47.690;11.770;2023-02-22T17:40:26;11.83;;;4.67;;
59366;SDS011;45163;47.690;11.770;2023-02-22T17:42:53;13.07;;;4.70;;
59366;SDS011;45163;47.690;11.770;2023-02-22T17:45:23;10.10;;;4.63;;
59366;SDS011;45163;47.690;11.770;2023-02-22T17:47:50;14.10;;;4.83;;